createdAt,value
2019-03-24T00:00:02.908Z,1026.4
2019-03-24T00:01:04.288Z,1026.5
2019-03-24T00:02:03.552Z,1026.4
2019-03-24T00:03:03.818Z,1026.5
2019-03-24T00:04:03.530Z,1026.5
2019-03-24T00:05:03.872Z,1026.4
2019-03-24T00:06:03.699Z,1026.4
2019-03-24T00:07:03.747Z,1026.5
2019-03-24T00:08:03.587Z,1026.5
2019-03-24T00:09:03.863Z,1026.6
2019-03-24T00:10:03.627Z,1026.6
2019-03-24T00:11:03.675Z,1026.5
2019-03-24T00:12:03.391Z,1026.5
2019-03-24T00:13:03.437Z,1026.5
2019-03-24T00:14:03.486Z,1026.6
2019-03-24T00:15:03.638Z,1026.5
2019-03-24T00:16:03.362Z,1026.5
2019-03-24T00:17:03.440Z,1026.5
2019-03-24T00:18:03.081Z,1026.5
2019-03-24T00:19:03.394Z,1026.5
2019-03-24T00:20:03.110Z,1026.5
2019-03-24T00:21:03.527Z,1026.5
2019-03-24T00:22:03.453Z,1026.4
2019-03-24T00:23:03.146Z,1026.4
2019-03-24T00:24:03.429Z,1026.5
2019-03-24T00:25:03.095Z,1026.5
2019-03-24T00:26:03.222Z,1026.4
2019-03-24T00:27:03.508Z,1026.4
2019-03-24T00:28:03.278Z,1026.4
2019-03-24T00:29:03.198Z,1026.4
2019-03-24T00:30:03.040Z,1026.4
2019-03-24T00:31:03.493Z,1026.5
2019-03-24T00:32:03.236Z,1026.4
2019-03-24T00:33:03.431Z,1026.4
2019-03-24T00:34:03.342Z,1026.4
2019-03-24T00:35:03.473Z,1026.4
2019-03-24T00:36:03.237Z,1026.4
2019-03-24T00:37:03.541Z,1026.3
2019-03-24T00:38:03.459Z,1026.3
2019-03-24T00:39:03.232Z,1026.3
2019-03-24T00:40:03.441Z,1026.4
2019-03-24T00:41:03.159Z,1026.4
2019-03-24T00:42:03.173Z,1026.4
2019-03-24T00:43:03.291Z,1026.3
2019-03-24T00:44:03.246Z,1026.3
2019-03-24T00:45:03.342Z,1026.3
2019-03-24T00:46:03.041Z,1026.3
2019-03-24T00:47:03.133Z,1026.4
2019-03-24T00:48:03.553Z,1026.4
2019-03-24T00:49:03.404Z,1026.4
2019-03-24T00:50:03.416Z,1026.3
2019-03-24T00:51:03.414Z,1026.4
2019-03-24T00:52:03.437Z,1026.3
2019-03-24T00:53:02.959Z,1026.3
2019-03-24T00:54:03.237Z,1026.3
2019-03-24T00:55:03.401Z,1026.3
2019-03-24T00:56:03.263Z,1026.3
2019-03-24T00:57:03.152Z,1026.2
2019-03-24T00:58:03.242Z,1026.3
2019-03-24T00:59:03.307Z,1026.2
2019-03-24T01:00:03.187Z,1026.3
2019-03-24T01:01:03.471Z,1026.3
2019-03-24T01:02:03.353Z,1026.2
2019-03-24T01:03:03.275Z,1026.2
2019-03-24T01:04:03.268Z,1026.4
2019-03-24T01:05:03.378Z,1026.2
2019-03-24T01:06:03.302Z,1026.3
2019-03-24T01:07:03.328Z,1026.2
2019-03-24T01:08:03.244Z,1026.2
2019-03-24T01:09:03.083Z,1026.2
2019-03-24T01:10:03.200Z,1026.1
2019-03-24T01:11:03.186Z,1026.3
2019-03-24T01:12:03.219Z,1026.2
2019-03-24T01:13:03.030Z,1026.2
2019-03-24T01:14:03.044Z,1026.1
2019-03-24T01:15:03.222Z,1026.1
2019-03-24T01:16:03.156Z,1026
2019-03-24T01:17:03.053Z,1026
2019-03-24T01:18:03.108Z,1026
2019-03-24T01:19:03.139Z,1026
2019-03-24T01:20:04.026Z,1026
2019-03-24T01:21:03.179Z,1026.1
2019-03-24T01:22:03.792Z,1026.2
2019-03-24T01:23:03.222Z,1026.2
2019-03-24T01:24:03.035Z,1026.1
2019-03-24T01:25:03.187Z,1026.1
2019-03-24T01:26:02.846Z,1026.1
2019-03-24T01:27:03.890Z,1026.1
2019-03-24T01:28:03.034Z,1026.1
2019-03-24T01:29:03.047Z,1026
2019-03-24T01:30:03.914Z,1026.1
2019-03-24T01:31:03.083Z,1026
2019-03-24T01:32:03.240Z,1026
2019-03-24T01:33:04.026Z,1026
2019-03-24T01:34:03.937Z,1026
2019-03-24T01:35:03.076Z,1026.1
2019-03-24T01:36:03.232Z,1026.1
2019-03-24T01:37:03.755Z,1025.9
2019-03-24T01:38:03.880Z,1025.9
2019-03-24T01:39:03.898Z,1025.9
2019-03-24T01:40:03.876Z,1025.9
2019-03-24T01:41:03.924Z,1025.9
2019-03-24T01:42:03.624Z,1025.9
2019-03-24T01:43:04.303Z,1025.9
2019-03-24T01:44:03.458Z,1025.9
2019-03-24T01:45:03.843Z,1025.9
2019-03-24T01:46:03.942Z,1026.1
2019-03-24T01:47:03.025Z,1026
2019-03-24T01:48:03.722Z,1026
2019-03-24T01:49:03.686Z,1026.1
2019-03-24T01:50:03.495Z,1026
2019-03-24T01:51:03.486Z,1026
2019-03-24T01:52:03.872Z,1026.1
2019-03-24T01:53:03.582Z,1026.1
2019-03-24T01:54:03.789Z,1026.1
2019-03-24T01:55:03.607Z,1026.1
2019-03-24T01:56:03.885Z,1026.1
2019-03-24T01:57:03.914Z,1026.1
2019-03-24T01:58:03.858Z,1026.2
2019-03-24T01:59:03.890Z,1026.2
2019-03-24T02:00:03.849Z,1026.2
2019-03-24T02:01:03.779Z,1026.1
2019-03-24T02:02:03.662Z,1026.2
2019-03-24T02:03:03.827Z,1026.2
2019-03-24T02:04:03.708Z,1026.2
2019-03-24T02:05:03.538Z,1026.1
2019-03-24T02:06:03.784Z,1026.1
2019-03-24T02:07:04.080Z,1026.1
2019-03-24T02:08:03.948Z,1026.1
2019-03-24T02:09:03.658Z,1026.1
2019-03-24T02:10:03.592Z,1026
2019-03-24T02:11:03.741Z,1026
2019-03-24T02:12:03.721Z,1026
2019-03-24T02:13:03.741Z,1026
2019-03-24T02:14:03.590Z,1026
2019-03-24T02:15:03.761Z,1026
2019-03-24T02:16:10.141Z,1026
2019-03-24T02:17:03.712Z,1026.1
2019-03-24T02:18:03.659Z,1026.1
2019-03-24T02:19:03.720Z,1026
2019-03-24T02:20:03.944Z,1025.9
2019-03-24T02:21:03.827Z,1026
2019-03-24T02:22:03.529Z,1026
2019-03-24T02:23:04.368Z,1025.9
2019-03-24T02:24:03.636Z,1025.9
2019-03-24T02:25:03.671Z,1025.9
2019-03-24T02:26:03.655Z,1026
2019-03-24T02:27:03.650Z,1025.9
2019-03-24T02:28:03.569Z,1025.9
2019-03-24T02:29:03.368Z,1025.9
2019-03-24T02:30:03.667Z,1025.9
2019-03-24T02:31:03.571Z,1025.9
2019-03-24T02:32:03.455Z,1025.9
2019-03-24T02:33:04.408Z,1026
2019-03-24T02:34:03.408Z,1025.9
2019-03-24T02:35:03.310Z,1025.9
2019-03-24T02:36:03.511Z,1025.9
2019-03-24T02:37:03.349Z,1025.9
2019-03-24T02:38:03.527Z,1025.8
2019-03-24T02:39:03.466Z,1025.8
2019-03-24T02:40:03.079Z,1025.7
2019-03-24T02:41:03.420Z,1025.7
2019-03-24T02:42:03.316Z,1025.8
2019-03-24T02:43:03.436Z,1025.7
2019-03-24T02:44:03.082Z,1025.8
2019-03-24T02:45:03.541Z,1025.8
2019-03-24T02:46:03.597Z,1025.8
2019-03-24T02:47:03.447Z,1025.8
2019-03-24T02:48:03.325Z,1025.9
2019-03-24T02:49:03.604Z,1025.9
2019-03-24T02:50:03.391Z,1025.8
2019-03-24T02:51:03.175Z,1025.9
2019-03-24T02:52:03.338Z,1025.9
2019-03-24T02:53:03.211Z,1025.8
2019-03-24T02:54:03.399Z,1025.8
2019-03-24T02:55:03.215Z,1026
2019-03-24T02:56:03.403Z,1025.8
2019-03-24T02:57:03.076Z,1025.8
2019-03-24T02:58:03.352Z,1025.8
2019-03-24T02:59:03.166Z,1025.8
2019-03-24T03:00:03.175Z,1025.9
2019-03-24T03:01:03.312Z,1025.8
2019-03-24T03:02:03.504Z,1025.7
2019-03-24T03:03:03.705Z,1025.8
2019-03-24T03:04:04.070Z,1025.8
2019-03-24T03:05:03.390Z,1025.7
2019-03-24T03:06:03.896Z,1025.7
2019-03-24T03:07:04.008Z,1025.7
2019-03-24T03:08:03.770Z,1025.7
2019-03-24T03:09:03.007Z,1025.8
2019-03-24T03:10:03.752Z,1025.8
2019-03-24T03:11:03.865Z,1025.7
2019-03-24T03:12:03.991Z,1025.8
2019-03-24T03:13:03.049Z,1025.8
2019-03-24T03:14:04.094Z,1025.8
2019-03-24T03:15:02.978Z,1025.8
2019-03-24T03:16:02.959Z,1025.8
2019-03-24T03:17:03.140Z,1025.8
2019-03-24T03:18:03.153Z,1025.7
2019-03-24T03:19:03.930Z,1025.8
2019-03-24T03:20:03.284Z,1025.7
2019-03-24T03:21:03.900Z,1025.7
2019-03-24T03:22:03.216Z,1025.8
2019-03-24T03:23:03.742Z,1025.8
2019-03-24T03:24:03.641Z,1025.7
2019-03-24T03:25:03.943Z,1025.7
2019-03-24T03:26:03.923Z,1025.7
2019-03-24T03:27:03.907Z,1025.7
2019-03-24T03:28:04.000Z,1025.7
2019-03-24T03:29:03.826Z,1025.8
2019-03-24T03:30:03.659Z,1025.6
2019-03-24T03:31:03.765Z,1025.7
2019-03-24T03:32:03.747Z,1025.7
2019-03-24T03:33:03.918Z,1025.7
2019-03-24T03:34:03.811Z,1025.7
2019-03-24T03:35:03.803Z,1025.8
2019-03-24T03:36:03.652Z,1025.7
2019-03-24T03:37:03.769Z,1025.8
2019-03-24T03:38:03.427Z,1025.7
2019-03-24T03:39:03.964Z,1025.7
2019-03-24T03:40:04.122Z,1025.7
2019-03-24T03:41:04.024Z,1025.7
2019-03-24T03:42:03.860Z,1025.7
2019-03-24T03:43:03.999Z,1025.7
2019-03-24T03:44:03.893Z,1025.7
2019-03-24T03:45:03.627Z,1025.7
2019-03-24T03:46:03.649Z,1025.7
2019-03-24T03:47:03.768Z,1025.8
2019-03-24T03:48:03.529Z,1025.7
2019-03-24T03:49:03.690Z,1025.8
2019-03-24T03:50:03.776Z,1025.7
2019-03-24T03:51:03.460Z,1025.7
2019-03-24T03:52:03.382Z,1025.8
2019-03-24T03:53:03.376Z,1025.8
2019-03-24T03:54:03.572Z,1025.7
2019-03-24T03:55:03.561Z,1025.7
2019-03-24T03:56:03.464Z,1025.7
2019-03-24T03:57:03.472Z,1025.7
2019-03-24T03:58:03.200Z,1025.8
2019-03-24T03:59:03.085Z,1025.8
2019-03-24T04:00:05.228Z,1025.7
2019-03-24T04:01:03.971Z,1025.8
2019-03-24T04:02:03.263Z,1025.7
2019-03-24T04:03:03.462Z,1025.7
2019-03-24T04:04:03.470Z,1025.6
2019-03-24T04:05:03.479Z,1025.7
2019-03-24T04:06:03.296Z,1025.7
2019-03-24T04:07:03.308Z,1025.7
2019-03-24T04:08:03.469Z,1025.6
2019-03-24T04:09:03.136Z,1025.7
2019-03-24T04:10:03.555Z,1025.7
2019-03-24T04:11:03.308Z,1025.7
2019-03-24T04:12:03.425Z,1025.7
2019-03-24T04:13:03.190Z,1025.7
2019-03-24T04:14:03.247Z,1025.7
2019-03-24T04:15:03.335Z,1025.7
2019-03-24T04:16:03.293Z,1025.7
2019-03-24T04:17:08.671Z,1025.7
2019-03-24T04:18:03.384Z,1025.7
2019-03-24T04:19:03.083Z,1025.7
2019-03-24T04:20:03.593Z,1025.8
2019-03-24T04:21:03.454Z,1025.7
2019-03-24T04:22:03.735Z,1025.7
2019-03-24T04:23:04.103Z,1025.7
2019-03-24T04:24:04.094Z,1025.8
2019-03-24T04:25:04.076Z,1025.7
2019-03-24T04:26:03.747Z,1025.6
2019-03-24T04:27:03.973Z,1025.7
2019-03-24T04:28:03.205Z,1025.6
2019-03-24T04:29:02.966Z,1025.7
2019-03-24T04:30:03.606Z,1025.7
2019-03-24T04:31:03.160Z,1025.6
2019-03-24T04:32:03.765Z,1025.6
2019-03-24T04:33:03.793Z,1025.7
2019-03-24T04:34:03.884Z,1025.7
2019-03-24T04:35:03.907Z,1025.8
2019-03-24T04:36:03.803Z,1025.8
2019-03-24T04:37:03.644Z,1025.8
2019-03-24T04:38:03.930Z,1025.7
2019-03-24T04:39:03.978Z,1025.7
2019-03-24T04:40:03.230Z,1025.7
2019-03-24T04:41:03.800Z,1025.7
2019-03-24T04:42:03.877Z,1025.7
2019-03-24T04:43:03.753Z,1025.7
2019-03-24T04:44:03.811Z,1025.9
2019-03-24T04:45:03.692Z,1025.9
2019-03-24T04:46:03.831Z,1025.9
2019-03-24T04:47:03.877Z,1025.8
2019-03-24T04:48:03.755Z,1025.9
2019-03-24T04:49:03.615Z,1025.9
2019-03-24T04:50:03.740Z,1025.9
2019-03-24T04:51:03.557Z,1025.9
2019-03-24T04:52:03.590Z,1025.9
2019-03-24T04:53:03.640Z,1025.9
2019-03-24T04:54:03.351Z,1025.9
2019-03-24T04:55:03.691Z,1025.8
2019-03-24T04:56:03.308Z,1025.7
2019-03-24T04:57:03.612Z,1025.8
2019-03-24T04:58:03.172Z,1025.8
2019-03-24T04:59:03.643Z,1025.8
2019-03-24T05:00:03.746Z,1026
2019-03-24T05:01:03.501Z,1025.7
2019-03-24T05:02:03.407Z,1026
2019-03-24T05:03:03.420Z,1026
2019-03-24T05:04:03.209Z,1026
2019-03-24T05:05:03.410Z,1025.8
2019-03-24T05:06:03.658Z,1025.8
2019-03-24T05:07:03.239Z,1025.8
2019-03-24T05:08:03.474Z,1026
2019-03-24T05:09:03.226Z,1025.7
2019-03-24T05:10:03.738Z,1025.6
2019-03-24T05:11:03.478Z,1025.7
2019-03-24T05:12:03.506Z,1025.8
2019-03-24T05:13:03.297Z,1025.7
2019-03-24T05:14:03.438Z,1025.7
2019-03-24T05:15:03.416Z,1025.7
2019-03-24T05:16:03.079Z,1025.8
2019-03-24T05:17:03.393Z,1025.7
2019-03-24T05:18:03.268Z,1025.7
2019-03-24T05:19:03.495Z,1025.8
2019-03-24T05:20:03.092Z,1025.8
2019-03-24T05:21:03.859Z,1025.8
2019-03-24T05:22:03.090Z,1025.7
2019-03-24T05:23:03.587Z,1025.8
2019-03-24T05:24:03.138Z,1025.6
2019-03-24T05:25:03.340Z,1025.6
2019-03-24T05:26:03.097Z,1025.7
2019-03-24T05:27:03.111Z,1025.6
2019-03-24T05:28:03.944Z,1025.6
2019-03-24T05:29:03.838Z,1025.7
2019-03-24T05:30:03.250Z,1025.6
2019-03-24T05:31:03.037Z,1025.7
2019-03-24T05:32:03.790Z,1025.6
2019-03-24T05:33:03.119Z,1025.7
2019-03-24T05:34:03.128Z,1025.7
2019-03-24T05:35:06.164Z,1025.6
2019-03-24T05:36:03.909Z,1025.7
2019-03-24T05:37:03.896Z,1025.7
2019-03-24T05:38:03.135Z,1025.7
2019-03-24T05:39:03.739Z,1025.6
2019-03-24T05:40:03.723Z,1025.7
2019-03-24T05:41:02.924Z,1025.7
2019-03-24T05:42:03.722Z,1025.6
2019-03-24T05:43:02.956Z,1025.7
2019-03-24T05:44:04.008Z,1025.7
2019-03-24T05:45:03.971Z,1025.7
2019-03-24T05:46:03.881Z,1025.7
2019-03-24T05:47:03.908Z,1025.7
2019-03-24T05:48:03.847Z,1025.7
2019-03-24T05:49:03.992Z,1025.7
2019-03-24T05:50:03.686Z,1025.7
2019-03-24T05:51:03.812Z,1025.6
2019-03-24T05:52:03.775Z,1025.7
2019-03-24T05:53:02.954Z,1025.6
2019-03-24T05:54:02.891Z,1025.7
2019-03-24T05:55:02.932Z,1025.7
2019-03-24T05:56:03.898Z,1025.5
2019-03-24T05:57:03.812Z,1025.5
2019-03-24T05:58:03.828Z,1025.5
2019-03-24T05:59:03.783Z,1025.5
2019-03-24T06:00:03.847Z,1025.5
2019-03-24T06:01:03.969Z,1025.5
2019-03-24T06:02:03.984Z,1025.4
2019-03-24T06:03:03.784Z,1025.5
2019-03-24T06:04:03.686Z,1025.5
2019-03-24T06:05:03.981Z,1025.5
2019-03-24T06:06:03.629Z,1025.4
2019-03-24T06:07:03.649Z,1025.4
2019-03-24T06:08:03.972Z,1025.4
2019-03-24T06:09:03.627Z,1025.3
2019-03-24T06:10:03.812Z,1025.4
2019-03-24T06:11:03.835Z,1025.3
2019-03-24T06:12:03.767Z,1025.2
2019-03-24T06:13:03.793Z,1025.4
2019-03-24T06:14:03.903Z,1025.4
2019-03-24T06:15:03.972Z,1025.4
2019-03-24T06:16:03.728Z,1025.2
2019-03-24T06:17:04.206Z,1025.3
2019-03-24T06:18:03.508Z,1025.3
2019-03-24T06:19:03.896Z,1025.3
2019-03-24T06:20:03.608Z,1025.3
2019-03-24T06:21:03.721Z,1025.3
2019-03-24T06:22:03.584Z,1025.4
2019-03-24T06:23:03.492Z,1025.3
2019-03-24T06:24:03.483Z,1025.3
2019-03-24T06:25:03.652Z,1025.2
2019-03-24T06:26:03.648Z,1025.2
2019-03-24T06:27:03.620Z,1025.1
2019-03-24T06:28:03.494Z,1025.1
2019-03-24T06:29:03.686Z,1025.1
2019-03-24T06:30:03.366Z,1025.2
2019-03-24T06:31:03.515Z,1025.1
2019-03-24T06:32:03.458Z,1025.1
2019-03-24T06:33:03.393Z,1025.1
2019-03-24T06:34:03.609Z,1025.1
2019-03-24T06:35:03.389Z,1025
2019-03-24T06:36:03.404Z,1025.1
2019-03-24T06:37:03.071Z,1025
2019-03-24T06:38:03.586Z,1024.9
2019-03-24T06:39:03.248Z,1025.1
2019-03-24T06:40:03.468Z,1025
2019-03-24T06:41:03.257Z,1025
2019-03-24T06:42:03.303Z,1025
2019-03-24T06:43:03.565Z,1025
2019-03-24T06:44:03.196Z,1025
2019-03-24T06:45:03.635Z,1025
2019-03-24T06:46:03.130Z,1025
2019-03-24T06:47:03.401Z,1025
2019-03-24T06:48:03.238Z,1025
2019-03-24T06:49:03.383Z,1025
2019-03-24T06:50:03.102Z,1024.8
2019-03-24T06:51:03.132Z,1024.8
2019-03-24T06:52:03.185Z,1024.8
2019-03-24T06:53:03.710Z,1024.7
2019-03-24T06:54:03.799Z,1024.7
2019-03-24T06:55:04.027Z,1024.7
2019-03-24T06:56:03.231Z,1024.7
2019-03-24T06:57:03.095Z,1024.7
2019-03-24T06:58:03.257Z,1024.5
2019-03-24T06:59:03.247Z,1024.7
2019-03-24T07:00:03.687Z,1024.5
2019-03-24T07:01:03.254Z,1024.6
2019-03-24T07:02:03.902Z,1024.6
2019-03-24T07:03:03.139Z,1024.5
2019-03-24T07:04:03.908Z,1024.6
2019-03-24T07:05:03.963Z,1024.6
2019-03-24T07:06:03.818Z,1024.6
2019-03-24T07:07:03.043Z,1024.6
2019-03-24T07:08:04.026Z,1024.6
2019-03-24T07:09:03.251Z,1024.4
2019-03-24T07:10:03.168Z,1024.2
2019-03-24T07:11:14.175Z,1024.2
2019-03-24T07:12:03.230Z,1024.2
2019-03-24T07:13:03.347Z,1024.2
2019-03-24T07:14:02.782Z,1024.1
2019-03-24T07:15:03.207Z,1024.1
2019-03-24T07:16:03.211Z,1024.1
2019-03-24T07:17:03.950Z,1024.2
2019-03-24T07:18:09.301Z,1024.1
2019-03-24T07:19:03.827Z,1023.9
2019-03-24T07:20:03.201Z,1024
2019-03-24T07:21:03.924Z,1024.1
2019-03-24T07:22:03.917Z,1024
2019-03-24T07:23:02.930Z,1024.1
2019-03-24T07:24:04.085Z,1023.9
2019-03-24T07:25:03.864Z,1023.9
2019-03-24T07:26:04.047Z,1023.9
2019-03-24T07:27:03.875Z,1023.9
2019-03-24T07:28:03.882Z,1023.9
2019-03-24T07:29:03.575Z,1023.9
2019-03-24T07:30:03.899Z,1023.9
2019-03-24T07:31:03.740Z,1023.9
2019-03-24T07:32:03.761Z,1023.7
2019-03-24T07:33:03.890Z,1023.9
2019-03-24T07:34:03.782Z,1023.8
2019-03-24T07:35:03.891Z,1023.8
2019-03-24T07:36:03.807Z,1023.7
2019-03-24T07:37:03.941Z,1023.6
2019-03-24T07:38:03.137Z,1023.7
2019-03-24T07:39:04.144Z,1023.6
2019-03-24T07:40:03.205Z,1023.6
2019-03-24T07:41:03.066Z,1023.6
2019-03-24T07:42:05.969Z,1023.5
2019-03-24T07:43:03.030Z,1023.5
2019-03-24T07:44:03.099Z,1023.6
2019-03-24T07:45:04.087Z,1023.5
2019-03-24T07:46:03.872Z,1023.4
2019-03-24T07:47:03.902Z,1023.5
2019-03-24T07:48:03.681Z,1023.4
2019-03-24T07:49:03.646Z,1023.4
2019-03-24T07:50:04.002Z,1023.5
2019-03-24T07:51:03.962Z,1023.5
2019-03-24T07:52:03.898Z,1023.4
2019-03-24T07:53:03.687Z,1023.5
2019-03-24T07:54:03.765Z,1023.3
2019-03-24T07:55:03.832Z,1023.3
2019-03-24T07:56:03.692Z,1023.3
2019-03-24T07:57:03.599Z,1023.3
2019-03-24T07:58:03.588Z,1023.3
2019-03-24T07:59:03.373Z,1023.2
2019-03-24T08:00:03.436Z,1023.2
2019-03-24T08:01:03.275Z,1023.3
2019-03-24T08:02:03.513Z,1023.2
2019-03-24T08:03:03.509Z,1023.2
2019-03-24T08:04:03.366Z,1023.2
2019-03-24T08:05:03.664Z,1023.2
2019-03-24T08:06:04.024Z,1023.3
2019-03-24T08:07:03.100Z,1023.3
2019-03-24T08:08:03.310Z,1023.2
2019-03-24T08:09:03.506Z,1023.3
2019-03-24T08:10:03.133Z,1023.1
2019-03-24T08:11:03.412Z,1023.1
2019-03-24T08:12:03.329Z,1023.2
2019-03-24T08:13:03.347Z,1023.2
2019-03-24T08:14:02.937Z,1023.2
2019-03-24T08:15:03.094Z,1023.1
2019-03-24T08:16:03.515Z,1023.1
2019-03-24T08:17:04.003Z,1023.1
2019-03-24T08:18:03.156Z,1023
2019-03-24T08:19:03.088Z,1022.9
2019-03-24T08:20:03.473Z,1022.9
2019-03-24T08:21:03.187Z,1022.8
2019-03-24T08:22:03.363Z,1022.8
2019-03-24T08:23:02.903Z,1022.8
2019-03-24T08:24:02.993Z,1022.7
2019-03-24T08:25:03.218Z,1022.6
2019-03-24T08:26:03.100Z,1022.7
2019-03-24T08:27:03.922Z,1022.7
2019-03-24T08:28:03.821Z,1022.5
2019-03-24T08:29:03.091Z,1022.6
2019-03-24T08:30:03.933Z,1022.5
2019-03-24T08:31:03.697Z,1022.6
2019-03-24T08:32:04.007Z,1022.4
2019-03-24T08:33:03.941Z,1022.4
2019-03-24T08:34:03.888Z,1022.4
2019-03-24T08:35:04.049Z,1022.4
2019-03-24T08:36:03.712Z,1022.4
2019-03-24T08:37:04.069Z,1022.5
2019-03-24T08:38:03.373Z,1022.4
2019-03-24T08:39:04.032Z,1022.4
2019-03-24T08:40:03.716Z,1022.3
2019-03-24T08:41:03.156Z,1022.4
2019-03-24T08:42:04.010Z,1022.3
2019-03-24T08:43:03.808Z,1022.4
2019-03-24T08:44:04.020Z,1022.4
2019-03-24T08:45:03.880Z,1022.4
2019-03-24T08:46:02.812Z,1022.3
2019-03-24T08:47:03.858Z,1022.3
2019-03-24T08:48:03.567Z,1022.4
2019-03-24T08:49:03.748Z,1022.4
2019-03-24T08:50:03.758Z,1022.3
2019-03-24T08:51:03.449Z,1022.4
2019-03-24T08:52:03.657Z,1022.3
2019-03-24T08:53:04.093Z,1022.3
2019-03-24T08:54:03.571Z,1022.2
2019-03-24T08:55:03.475Z,1022.2
2019-03-24T08:56:03.520Z,1022.2
2019-03-24T08:57:04.040Z,1022.2
2019-03-24T08:58:02.269Z,1022.2
2019-03-24T08:59:03.255Z,1022.2
2019-03-24T09:00:04.489Z,1022.2
2019-03-24T09:01:03.724Z,1022.2
2019-03-24T09:02:03.374Z,1022.2
2019-03-24T09:03:03.551Z,1022.1
2019-03-24T09:04:03.573Z,1022.1
2019-03-24T09:05:03.494Z,1022
2019-03-24T09:06:03.159Z,1022.1
2019-03-24T09:07:03.254Z,1022
2019-03-24T09:08:03.760Z,1022.1
2019-03-24T09:09:03.240Z,1022
2019-03-24T09:10:03.002Z,1022.2
2019-03-24T09:11:03.285Z,1022
2019-03-24T09:12:03.229Z,1022.1
2019-03-24T09:13:03.240Z,1022
2019-03-24T09:14:03.276Z,1022.1
2019-03-24T09:15:03.136Z,1022
2019-03-24T09:16:03.347Z,1022
2019-03-24T09:17:03.312Z,1022
2019-03-24T09:18:03.251Z,1021.9
2019-03-24T09:19:03.919Z,1021.9
2019-03-24T09:20:03.298Z,1021.9
2019-03-24T09:21:02.974Z,1021.8
2019-03-24T09:22:03.006Z,1021.8
2019-03-24T09:23:03.002Z,1021.8
2019-03-24T09:24:04.087Z,1021.9
2019-03-24T09:25:03.215Z,1022
2019-03-24T09:26:03.643Z,1021.7
2019-03-24T09:27:03.198Z,1021.8
2019-03-24T09:28:03.200Z,1021.7
2019-03-24T09:29:03.088Z,1021.8
2019-03-24T09:30:04.245Z,1021.6
2019-03-24T09:31:03.489Z,1021.5
2019-03-24T09:32:03.780Z,1021.4
2019-03-24T09:33:03.747Z,1021.4
2019-03-24T09:34:03.779Z,1021.4
2019-03-24T09:35:03.882Z,1021.3
2019-03-24T09:36:03.629Z,1021.3
2019-03-24T09:37:03.764Z,1021.3
2019-03-24T09:38:03.712Z,1021.3
2019-03-24T09:39:03.919Z,1021.3
2019-03-24T09:40:03.610Z,1021.2
2019-03-24T09:41:03.790Z,1021.2
2019-03-24T09:42:03.680Z,1021.2
2019-03-24T09:43:03.586Z,1021.2
2019-03-24T09:44:03.534Z,1021
2019-03-24T09:45:03.407Z,1021
2019-03-24T09:46:03.495Z,1021
2019-03-24T09:47:03.458Z,1021
2019-03-24T09:48:03.532Z,1021.1
2019-03-24T09:49:03.891Z,1021.1
2019-03-24T09:50:03.428Z,1021.2
2019-03-24T09:51:04.192Z,1021.2
2019-03-24T09:52:03.576Z,1021.1
2019-03-24T09:53:03.598Z,1021.1
2019-03-24T09:54:03.530Z,1021.2
2019-03-24T09:55:03.762Z,1021.1
2019-03-24T09:56:03.469Z,1021.1
2019-03-24T09:57:03.333Z,1021
2019-03-24T09:58:03.443Z,1021.1
2019-03-24T09:59:03.254Z,1020.9
2019-03-24T10:00:03.327Z,1021
2019-03-24T10:01:03.187Z,1020.9
2019-03-24T10:02:03.351Z,1020.9
2019-03-24T10:03:03.485Z,1020.8
2019-03-24T10:04:03.361Z,1020.7
2019-03-24T10:05:03.200Z,1020.8
2019-03-24T10:06:03.271Z,1020.7
2019-03-24T10:07:03.275Z,1020.9
2019-03-24T10:08:03.396Z,1020.8
2019-03-24T10:09:03.317Z,1020.8
2019-03-24T10:10:03.677Z,1020.8
2019-03-24T10:11:03.197Z,1020.8
2019-03-24T10:12:03.407Z,1020.7
2019-03-24T10:13:03.211Z,1020.7
2019-03-24T10:14:03.011Z,1020.7
2019-03-24T10:15:03.355Z,1020.6
2019-03-24T10:16:03.840Z,1020.6
2019-03-24T10:17:03.386Z,1020.8
2019-03-24T10:18:03.156Z,1020.8
2019-03-24T10:19:14.837Z,1020.7
2019-03-24T10:20:03.967Z,1020.7
2019-03-24T10:21:03.959Z,1020.7
2019-03-24T10:22:03.130Z,1020.6
2019-03-24T10:23:03.068Z,1020.6
2019-03-24T10:24:02.960Z,1020.6
2019-03-24T10:25:03.653Z,1020.6
2019-03-24T10:26:04.118Z,1020.7
2019-03-24T10:27:03.579Z,1020.7
2019-03-24T10:28:03.670Z,1020.5
2019-03-24T10:29:03.682Z,1020.4
2019-03-24T10:30:03.764Z,1020.5
2019-03-24T10:31:03.723Z,1020.6
2019-03-24T10:32:03.594Z,1020.4
2019-03-24T10:33:03.665Z,1020.3
2019-03-24T10:34:03.876Z,1020.4
2019-03-24T10:35:03.691Z,1020.4
2019-03-24T10:36:03.841Z,1020.4
2019-03-24T10:37:03.740Z,1020.1
2019-03-24T10:38:03.400Z,1020.2
2019-03-24T10:39:03.685Z,1020.1
2019-03-24T10:40:03.607Z,1020.2
2019-03-24T10:41:03.653Z,1020.2
2019-03-24T10:42:03.496Z,1020.1
2019-03-24T10:43:03.778Z,1020
2019-03-24T10:44:03.563Z,1020
2019-03-24T10:45:03.529Z,1020.1
2019-03-24T10:46:03.523Z,1020
2019-03-24T10:47:03.669Z,1020.2
2019-03-24T10:48:03.457Z,1020.2
2019-03-24T10:49:03.402Z,1020.2
2019-03-24T10:50:03.637Z,1020.2
2019-03-24T10:51:03.315Z,1020.2
2019-03-24T10:52:03.344Z,1020.2
2019-03-24T10:53:03.235Z,1020.1
2019-03-24T10:54:03.246Z,1020
2019-03-24T10:55:03.112Z,1020.1
2019-03-24T10:56:03.187Z,1020.1
2019-03-24T10:57:02.789Z,1020.1
2019-03-24T10:58:03.510Z,1020.2
2019-03-24T10:59:04.045Z,1020.2
2019-03-24T11:00:03.359Z,1020.3
2019-03-24T11:01:03.395Z,1020.2
2019-03-24T11:02:03.173Z,1020.3
2019-03-24T11:03:03.155Z,1020.2
2019-03-24T11:04:04.050Z,1020.3
2019-03-24T11:05:03.111Z,1020.2
2019-03-24T11:06:03.049Z,1020.2
2019-03-24T11:07:03.180Z,1020.3
2019-03-24T11:08:03.907Z,1020.2
2019-03-24T11:09:03.928Z,1020.3
2019-03-24T11:10:02.854Z,1020.2
2019-03-24T11:11:04.181Z,1020.2
2019-03-24T11:12:03.962Z,1020.3
2019-03-24T11:13:04.061Z,1020.2
2019-03-24T11:14:03.747Z,1020.3
2019-03-24T11:15:03.957Z,1020.2
2019-03-24T11:16:04.004Z,1020.2
2019-03-24T11:17:03.777Z,1020.2
2019-03-24T11:18:03.875Z,1020.2
2019-03-24T11:19:02.780Z,1020.2
2019-03-24T11:20:03.679Z,1020.2
2019-03-24T11:21:03.790Z,1020.1
2019-03-24T11:22:04.007Z,1020.2
2019-03-24T11:23:03.751Z,1020.2
2019-03-24T11:24:03.780Z,1020.2
2019-03-24T11:25:03.884Z,1020.1
2019-03-24T11:26:03.875Z,1020.2
2019-03-24T11:27:03.618Z,1020.2
2019-03-24T11:28:03.777Z,1020.1
2019-03-24T11:29:04.000Z,1020.1
2019-03-24T11:30:03.993Z,1020.1
2019-03-24T11:31:03.690Z,1020.1
2019-03-24T11:32:03.702Z,1020.1
2019-03-24T11:33:03.560Z,1020.1
2019-03-24T11:34:03.688Z,1020.2
2019-03-24T11:35:02.970Z,1020.1
2019-03-24T11:36:03.787Z,1020.1
2019-03-24T11:37:04.004Z,1020.1
2019-03-24T11:38:03.724Z,1020.1
2019-03-24T11:39:03.833Z,1020.2
2019-03-24T11:40:03.644Z,1020.1
2019-03-24T11:41:03.809Z,1020.1
2019-03-24T11:42:03.467Z,1020.1
2019-03-24T11:43:03.891Z,1020
2019-03-24T11:44:03.643Z,1020
2019-03-24T11:45:03.872Z,1019.9
2019-03-24T11:46:03.662Z,1019.9
2019-03-24T11:47:03.511Z,1019.8
2019-03-24T11:48:03.483Z,1019.9
2019-03-24T11:49:03.842Z,1019.9
2019-03-24T11:50:03.590Z,1019.8
2019-03-24T11:51:03.780Z,1019.8
2019-03-24T11:52:03.694Z,1019.7
2019-03-24T11:53:03.554Z,1019.7
2019-03-24T11:54:03.469Z,1019.7
2019-03-24T11:55:03.628Z,1019.7
2019-03-24T11:56:03.369Z,1019.7
2019-03-24T11:57:03.329Z,1019.7
2019-03-24T11:58:06.746Z,1019.7
2019-03-24T11:59:03.360Z,1019.8
2019-03-24T12:00:03.140Z,1019.8
2019-03-24T12:01:03.304Z,1019.7
2019-03-24T12:02:03.273Z,1019.8
2019-03-24T12:03:03.475Z,1019.7
2019-03-24T12:04:03.149Z,1019.8
2019-03-24T12:05:03.653Z,1019.6
2019-03-24T12:06:15.447Z,1019.7
2019-03-24T12:07:03.430Z,1019.8
2019-03-24T12:08:03.424Z,1019.7
2019-03-24T12:09:03.229Z,1019.6
2019-03-24T12:10:03.455Z,1019.6
2019-03-24T12:11:03.282Z,1019.5
2019-03-24T12:12:03.547Z,1019.4
2019-03-24T12:13:03.504Z,1019.4
2019-03-24T12:14:03.473Z,1019.5
2019-03-24T12:15:05.918Z,1019.4
2019-03-24T12:16:03.303Z,1019.5
2019-03-24T12:17:03.173Z,1019.4
2019-03-24T12:18:03.885Z,1019.5
2019-03-24T12:19:03.176Z,1019.4
2019-03-24T12:20:03.747Z,1019.4
2019-03-24T12:21:03.252Z,1019.4
2019-03-24T12:22:03.199Z,1019.4
2019-03-24T12:23:03.505Z,1019.4
2019-03-24T12:24:03.450Z,1019.4
2019-03-24T12:25:03.051Z,1019.3
2019-03-24T12:26:03.264Z,1019.4
2019-03-24T12:27:03.249Z,1019.5
2019-03-24T12:28:03.231Z,1019.3
2019-03-24T12:29:03.420Z,1019.3
2019-03-24T12:30:02.999Z,1019.3
2019-03-24T12:31:03.298Z,1019.2
2019-03-24T12:32:03.198Z,1019.2